CheckWX is a tool to help pilots better visualize weather data.  It is not intended as a substitute for an official pre-flight weather briefing.

18:30:25 UTC

ZGGG TAF
Guangzhou Baiyun International Airport
Guangzhou, China
TAF ZGGG 221517Z 2218/2318 02004MPS 7000 BKN033 TX17/2307Z TN12/2222Z TEMPO 2220/2302 3000 SHRA SCT015 FEW030CB BKN033 TEMPO 2302/2306 3000 SHRA SCT015 FEW030CB BKN033

Feb-22@
18:00 UTC

Feb-22 @ 18:00 UTC

Feb-23@
18:00 UTC

Feb-23 @ 18:00 UTC

TAF ZGGG 221517Z 2218/2318 02004MPS 7000 BKN033 TX17/2307Z TN12/2222Z
Wind
  • 020° at 8 KTS
Cloud Levels
  • Broken at 3,300' AGL

Feb-22@
20:00 UTC

Feb-22 @ 20:00 UTC

Feb-23@
02:00 UTC

Feb-23 @ 02:00 UTC

TEMPO 2220/2302 3000 SHRA SCT015 FEW030CB BKN033

Temporary

TemporaryChanges expected for less than half the time period

Conditions
Rain
Cloud Levels
  • Scattered at 1,500' AGL
  • Few at 3,000' AGL
  • Broken at 3,300' AGL

Feb-23@
02:00 UTC

Feb-23 @ 02:00 UTC

Feb-23@
06:00 UTC

Feb-23 @ 06:00 UTC

TEMPO 2302/2306 3000 SHRA SCT015 FEW030CB BKN033

Temporary

TemporaryChanges expected for less than half the time period

Conditions
Rain
Cloud Levels
  • Scattered at 1,500' AGL
  • Few at 3,000' AGL
  • Broken at 3,300' AGL